• Join FlightAware (Why Join?)
  • Login
  • US Flag 
05:11AM EDT


 

Airport Tracker/Info


-or-


 

Live Flight TrackerFlight Track Log ✈ AFL150 ✈ 24-Oct-2013 ✈ UUEE / SVO - MUHA / HAV

Flight Track Log - Related Links

Times and Time Zones

All times are in EDT time to prevent confusion due to time zone crossing. See the AFL150 flight status page for this flight to view local times or setup timezone preferences in your user account.

Time Position Orientation Groundspeed Altitude Reporting Facility
EDT Latitude Longitude Course Direction KTS MPH feet Rate Location/Type
06:24AM 55.9740 37.4310 331° Northwest 96 110  Level FlightAware
06:24AM 55.9650 37.3710 255° West 157 181 1,800 1,860 Climbing FlightAware
06:25AM 55.9580 37.3240 255° West 181 208 2,800 1,320 Climbing FlightAware
06:26AM 55.9500 37.2670 256° West 220 253 3,400 1,560 Climbing FlightAware
06:26AM 55.9630 37.1880 286° West 249 287 4,900 2,160 Climbing FlightAware
06:27AM 55.9780 37.1270 294° West 255 293 6,200 2,820 Climbing FlightAware
06:27AM 55.9940 37.0660 295° West 251 289 7,800 2,640 Climbing FlightAware
06:28AM 56.0140 36.9900 295° West 260 299 9,400 2,220 Climbing FlightAware
06:29AM 56.0300 36.9280 295° West 271 312 10,500 1,320 Climbing FlightAware
06:29AM 56.0530 36.8380 295° West 315 362 11,000 900 Climbing FlightAware
06:30AM 56.0790 36.7360 295° West 351 404 11,700 1,560 Climbing FlightAware
06:31AM 56.1140 36.5960 294° West 368 423 13,400 2,040 Climbing FlightAware
06:32AM 56.1450 36.4730 294° West 374 430 15,000 2,280 Climbing FlightAware
06:33AM 56.1910 36.2890 294° West 372 428 17,600 2,340 Climbing FlightAware
06:33AM 56.2170 36.1880 295° West 372 428 18,900 1,920 Climbing FlightAware
06:34AM 56.2430 36.0800 293° West 378 435 20,100 1,740 Climbing FlightAware
06:34AM 56.2670 35.9850 294° West 383 441 21,000 1,560 Climbing FlightAware
06:35AM 56.2960 35.8650 294° West 390 449 22,000 1,380 Climbing FlightAware
06:36AM 56.3250 35.7450 294° West 399 459 22,900 1,260 Climbing FlightAware
06:37AM 56.3640 35.5840 294° West 407 468 24,000 1,260 Climbing FlightAware
06:37AM 56.3910 35.4700 293° West 414 476 24,800 1,500 Climbing FlightAware
06:38AM 56.4200 35.3720 298° West 414 476 25,700 1,260 Climbing FlightAware
06:39AM 56.4690 35.2480 306° West 423 487 26,400 1,020 Climbing FlightAware
06:39AM 56.5190 35.1560 315° West 432 497 27,100 1,080 Climbing FlightAware
06:40AM 56.5750 35.0780 323° Northwest 440 506 27,700 960 Climbing FlightAware
06:40AM 56.6510 35.0050 332° Northwest 451 519 28,400 960 Climbing FlightAware
06:41AM 56.7370 34.9570 343° North 465 535 29,100 1,140 Climbing FlightAware
06:42AM 56.8140 34.9390 353° North 468 539 29,900 1,200 Climbing FlightAware
06:43AM 56.9260 34.9440 North 472 543 30,900 960 Climbing FlightAware
06:43AM 57.0190 34.9510 North 474 545 31,500 720 Climbing FlightAware
06:44AM 57.1210 34.9540 North 479 551 32,000 660 Climbing FlightAware
06:45AM 57.1990 34.9570 North 480 552 32,400 1,140 Climbing FlightAware
06:46AM 57.3150 34.9600 North 467 537 33,700 960 Climbing FlightAware
06:46AM 57.4140 34.9630 North 474 545 34,000 180 Climbing FlightAware
06:47AM 57.5110 34.9660 North 476 548 34,000  Level FlightAware
06:48AM 57.5990 34.9560 357° North 463 533 34,000  Level FlightAware
06:49AM 57.7010 34.9130 347° North 450 518 34,000  Level FlightAware
06:49AM 57.7680 34.8650 339° North 440 506 34,000  Level FlightAware
06:50AM 57.8230 34.8130 333° Northwest 434 499 34,000  Level FlightAware
06:50AM 57.8610 34.7690 328° Northwest 431 496 34,000  Level FlightAware
06:51AM 57.9520 34.6430 324° Northwest 428 493 34,000  Level FlightAware
06:52AM 58.0140 34.5550 323° Northwest 428 493 34,000  Level FlightAware
06:52AM 58.0850 34.4560 324° Northwest 426 490 34,000  Level FlightAware
06:53AM 58.1580 34.3540 324° Northwest 426 490 34,000  Level FlightAware
06:54AM 58.2100 34.2750 321° Northwest 424 488 34,000  Level FlightAware
06:55AM 58.2950 34.1450 321° Northwest 422 486 34,000  Level FlightAware
06:55AM 58.3320 34.0870 321° Northwest 422 486 34,000  Level FlightAware
06:56AM 58.3810 34.0130 322° Northwest 422 486 34,000  Level FlightAware
06:56AM 58.4230 33.9480 321° Northwest 422 486 34,000  Level FlightAware
06:57AM 58.4960 33.8350 321° Northwest 425 489 34,000  Level FlightAware
06:57AM 58.5350 33.7740 321° Northwest 425 489 34,000  Level FlightAware
06:58AM 58.6180 33.6450 321° Northwest 426 490 34,000  Level FlightAware
06:59AM 58.6530 33.5910 321° Northwest 426 490 34,000  Level FlightAware
06:59AM 58.7270 33.4740 321° Northwest 425 489 34,000  Level FlightAware
07:00AM 58.7730 33.3850 315° West 419 482 34,000  Level FlightAware
07:01AM 58.8310 33.2770 316° Northwest 422 486 34,000  Level FlightAware
07:01AM 58.8880 33.1670 315° West 420 483 34,000  Level FlightAware
07:02AM 58.9440 33.0590 315° West 422 486 34,000  Level FlightAware
07:03AM 58.9880 32.9720 314° West 415 478 34,000  Level FlightAware
07:03AM 59.0570 32.8360 315° West 422 486 34,000  Level FlightAware
07:04AM 59.1110 32.7290 315° West 422 486 34,000  Level FlightAware
07:05AM 59.1600 32.6330 315° West 421 484 34,000  Level FlightAware
07:05AM 59.2040 32.5450 314° West 421 484 34,000  Level FlightAware
07:06AM 59.2680 32.4160 314° West 422 486 34,000 -300 Level FlightAware
07:07AM 59.3200 32.3110 314° West 426 490 33,600 -720 Descending FlightAware
07:07AM 59.3760 32.1980 314° West 424 488 33,100 -480 Descending FlightAware
07:08AM 59.4210 32.0980 312° West 414 476 33,000 -120 Descending FlightAware
07:08AM 59.4580 31.9890 304° West 411 473 33,000  Level FlightAware
07:09AM 59.4790 31.9110 298° West 408 470 33,000  Level FlightAware
07:10AM 59.5130 31.7600 294° West 405 466 33,000  Level FlightAware
07:10AM 59.5440 31.6190 293° West 402 463 33,000  Level FlightAware
07:11AM 59.5800 31.4510 293° West 404 465 33,000  Level FlightAware
07:12AM 59.6030 31.3440 293° West 403 464 33,000  Level FlightAware
07:12AM 59.6340 31.1980 293° West 399 459 33,000  Level FlightAware
07:13AM 59.6620 31.0660 293° West 398 458 33,000  Level FlightAware
07:14AM 59.6850 30.9580 293° West 396 456 33,000  Level FlightAware
07:14AM 59.7120 30.8280 292° West 395 455 33,000  Level FlightAware
07:15AM 59.7460 30.6680 293° West 394 453 33,000  Level FlightAware
07:16AM 59.7640 30.5590 288° West 391 450 33,000  Level FlightAware
07:16AM 59.7790 30.4590 287° West 389 448 33,000  Level FlightAware
07:17AM 59.7910 30.2900 278° West 380 437 33,000  Level FlightAware
07:18AM 59.7830 30.0800 266° West 375 432 33,000  Level FlightAware
07:19AM 59.7670 29.9500 256° West 375 432 33,000  Level FlightAware
07:19AM 59.7490 29.8090 256° West 373 429 33,000  Level FlightAware
07:20AM 59.7300 29.6600 256° West 375 432 33,000  Level FlightAware
07:21AM 59.7100 29.4960 256° West 377 434 33,000  Level FlightAware
07:22AM 59.7180 29.3450 276° West 383 441 33,000 180 Level FlightAware
07:22AM 59.7340 29.1830 281° West 379 436 33,300 480 Climbing FlightAware
07:23AM 59.7480 29.0300 280° West 383 441 33,800 480 Climbing FlightAware
07:24AM 59.7600 28.8930 280° West 390 449 34,000 120 Climbing FlightAware
07:25AM 59.7750 28.7150 280° West 403 464 34,000  Level FlightAware
07:25AM 59.7910 28.5400 280° West 403 464 34,000  Level FlightAware
07:26AM 59.8040 28.3840 279° West 402 463 34,000  Level FlightAware
07:27AM 59.8180 28.2210 280° West 399 459 34,000  Level FlightAware
07:27AM 59.8290 28.0870 279° West 397 457 34,000  Level FlightAware
07:28AM 59.8430 27.9150 279° West 399 459 34,000  Level FlightAware
07:29AM 59.8540 27.7670 278° West 402 463 34,000  Level FlightAware
07:30AM 59.8640 27.6470 279° West 403 464 34,000  Level FlightAware
07:30AM 59.8730 27.5270 279° West 402 463 34,000  Level FlightAware
07:31AM 59.8850 27.3790 279° West 401 461 34,000  Level FlightAware
07:31AM 59.8960 27.2280 278° West 400 460 34,000  Level FlightAware
07:32AM 59.9070 27.0870 279° West 400 460 34,000  Level FlightAware
07:33AM 59.9170 26.9450 278° West 401 461 34,000  Level FlightAware
07:33AM 59.9260 26.8180 278° West 404 465 34,000  Level FlightAware
07:34AM 59.9380 26.6590 279° West 406 467 34,000  Level FlightAware
07:35AM 59.9490 26.5060 278° West 410 472 34,000  Level FlightAware
07:35AM 59.9690 26.3480 284° West 418 481 34,000  Level FlightAware
07:36AM 59.9960 26.2140 292° West 425 489 34,000  Level FlightAware
07:37AM 60.0280 26.0950 298° West 433 498 34,000  Level FlightAware
07:37AM 60.0920 25.9810 318° Northwest 463 533 34,000  Level FlightAware
07:38AM 60.1630 25.8930 328° Northwest 463 533 34,000  Level FlightAware
07:39AM 60.2380 25.8000 328° Northwest 463 533 34,000  Level FlightAware
07:39AM 60.3130 25.7070 328° Northwest 461 531 34,000  Level FlightAware
07:40AM 60.3900 25.6090 328° Northwest 459 528 34,000  Level FlightAware
07:41AM 60.4480 25.5350 328° Northwest 460 529 34,000  Level FlightAware
07:41AM 60.5260 25.4330 327° Northwest 462 532 34,000  Level FlightAware
07:42AM 60.6080 25.3270 328° Northwest 463 533 34,000  Level FlightAware
07:43AM 60.6630 25.2550 327° Northwest 462 532 34,000  Level FlightAware
07:43AM 60.7220 25.1780 327° Northwest 460 529 34,000  Level FlightAware
07:44AM 60.7920 25.0860 327° Northwest 458 527 34,000  Level FlightAware
07:44AM 60.8600 24.9960 327° Northwest 458 527 34,000  Level FlightAware
07:45AM 60.9450 24.8830 327° Northwest 458 527 34,000  Level FlightAware
07:46AM 61.0390 24.7580 327° Northwest 458 527 34,000  Level FlightAware
07:47AM 61.1190 24.6500 327° Northwest 459 528 34,000  Level FlightAware
07:47AM 61.1870 24.5570 327° Northwest 460 529 34,000  Level FlightAware
07:48AM 61.2540 24.4670 327° Northwest 460 529 34,000  Level FlightAware
07:49AM 61.3210 24.3740 326° Northwest 461 531 34,000  Level FlightAware
07:49AM 61.3960 24.2720 327° Northwest 461 531 34,000  Level FlightAware
07:50AM 61.4710 24.1680 326° Northwest 462 532 34,000  Level FlightAware
07:51AM 61.5330 24.0810 326° Northwest 462 532 34,000  Level FlightAware
07:51AM 61.5970 23.9920 327° Northwest 464 534 34,000  Level FlightAware
07:52AM 61.6710 23.8880 326° Northwest 462 532 34,000  Level FlightAware
07:53AM 61.7320 23.8010 326° Northwest 459 528 34,000  Level FlightAware
07:53AM 61.7940 23.7120 326° Northwest 458 527 34,000  Level FlightAware
07:54AM 61.8670 23.6090 326° Northwest 457 526 34,000  Level FlightAware
07:55AM 61.9270 23.5220 326° Northwest 458 527 34,000  Level FlightAware
07:55AM 62.0150 23.3950 326° Northwest 459 528 34,000  Level FlightAware
07:56AM 62.0900 23.2870 326° Northwest 458 527 34,000  Level FlightAware
07:57AM 62.1570 23.1870 325° Northwest 457 526 34,000  Level FlightAware
07:58AM 62.2450 23.0590 326° Northwest 456 525 34,000  Level FlightAware
07:58AM 62.3260 22.9370 325° Northwest 453 521 34,000  Level FlightAware
07:59AM 62.4050 22.8200 326° Northwest 454 522 34,000  Level FlightAware
08:00AM 62.4520 22.7490 325° Northwest 455 524 34,000  Level FlightAware
08:00AM 62.5350 22.6240 325° Northwest 458 527 34,000  Level FlightAware
08:01AM 62.6130 22.5060 325° Northwest 460 529 34,000  Level FlightAware
08:02AM 62.6840 22.3970 325° Northwest 463 533 34,000  Level FlightAware
08:02AM 62.7590 22.2820 325° Northwest 464 534 34,000  Level FlightAware
08:03AM 62.8110 22.2020 325° Northwest 464 534 34,000  Level FlightAware
08:04AM 62.9060 22.0540 325° Northwest 462 532 34,000  Level FlightAware
08:04AM 62.9630 21.9640 324° Northwest 461 531 34,000  Level FlightAware
08:05AM 63.0270 21.8640 325° Northwest 461 531 34,000  Level FlightAware
08:06AM 63.1040 21.7420 324° Northwest 460 529 34,000  Level FlightAware
08:07AM 63.1870 21.6090 324° Northwest 462 532 34,000  Level FlightAware
08:07AM 63.2660 21.4820 324° Northwest 463 533 34,000  Level FlightAware
08:08AM 63.3480 21.3490 324° Northwest 465 535 34,000  Level FlightAware
08:09AM 63.4040 21.2580 324° Northwest 464 534 34,000  Level FlightAware
08:09AM 63.4720 21.1470 324° Northwest 465 535 34,000  Level FlightAware
08:10AM 63.5490 21.0200 324° Northwest 464 534 34,000  Level FlightAware
08:10AM 63.5910 20.9510 324° Northwest 463 533 34,000  Level FlightAware
08:11AM 63.6560 20.8100 316° Northwest 462 532 34,000  Level FlightAware
08:12AM 63.7210 20.6730 317° Northwest 463 533 34,000  Level FlightAware
08:13AM 63.8000 20.5060 317° Northwest 462 532 34,000  Level FlightAware
08:13AM 63.8600 20.3770 317° Northwest 461 531 34,000  Level FlightAware
08:14AM 63.9340 20.2170 317° Northwest 461 531 34,000  Level FlightAware
08:15AM 63.9830 20.1110 317° Northwest 461 531 34,000  Level FlightAware
08:15AM 64.0320 20.0060 317° Northwest 461 531 34,000  Level FlightAware
08:16AM 64.1020 19.8530 316° Northwest 461 531 34,000  Level FlightAware
08:16AM 64.1460 19.7550 316° Northwest 462 532 34,000  Level FlightAware
08:17AM 64.2310 19.5680 316° Northwest 463 533 34,000  Level FlightAware
08:18AM 64.2860 19.4450 316° Northwest 463 533 34,000  Level FlightAware
08:19AM 64.3530 19.2940 316° Northwest 460 529 34,000  Level FlightAware
08:20AM 64.4690 19.0310 316° Northwest 458 527 34,000  Level FlightAware
08:21AM 64.5220 18.9090 315° West 459 528 34,000  Level FlightAware
08:21AM 64.5700 18.7980 315° West 461 531 34,000  Level FlightAware
08:22AM 64.6340 18.6500 315° West 461 531 34,000  Level FlightAware
08:22AM 64.6910 18.5180 315° West 462 532 34,000  Level FlightAware
08:24AM 64.7920 18.2790 315° West 463 533 34,000  Level FlightAware
08:24AM 64.8550 18.1300 315° West 462 532 34,000  Level FlightAware
08:25AM 64.9270 17.9580 315° West 462 532 34,000  Level FlightAware
08:26AM 64.9990 17.7830 314° West 462 532 34,000  Level FlightAware
08:26AM 65.0530 17.6530 315° West 463 533 34,000  Level FlightAware
08:27AM 65.1040 17.5290 314° West 463 533 34,000  Level FlightAware
08:28AM 65.1720 17.3600 314° West 463 533 34,000  Level FlightAware
08:28AM 65.2310 17.2140 314° West 462 532 34,000  Level FlightAware
08:29AM 65.3000 17.0410 314° West 460 529 34,000  Level FlightAware
08:30AM 65.3950 16.8030 314° West 458 527 34,000  Level FlightAware
08:31AM 65.4570 16.6450 313° West 458 527 34,000  Level FlightAware
08:32AM 65.5280 16.4630 313° West 458 527 34,000  Level FlightAware
08:33AM 65.5840 16.3160 313° West 457 526 34,000  Level FlightAware
08:33AM 65.6530 16.1380 313° West 458 527 34,000  Level FlightAware
08:34AM 65.7080 15.9930 313° West 459 528 34,000  Level FlightAware
08:35AM 65.7620 15.8500 313° West 460 529 34,000  Level FlightAware
08:35AM 65.8060 15.7330 313° West 460 529 34,000  Level FlightAware
08:36AM 65.8730 15.5540 313° West 460 529 34,000  Level FlightAware
08:37AM 65.9370 15.3810 312° West 461 531 34,000  Level FlightAware
08:37AM 65.9970 15.2180 312° West 461 531 34,000  Level FlightAware
08:38AM 66.0420 15.0950 312° West 460 529 34,000  Level FlightAware
08:39AM 66.1160 14.8910 312° West 458 527 34,000  Level FlightAware
08:39AM 66.1540 14.7840 311° West 457 526 34,000  Level FlightAware
08:40AM 66.2140 14.6150 311° West 449 517 34,000  Level FlightAware
08:41AM 66.2630 14.4780 312° West 447 514 34,000  Level FlightAware
08:41AM 66.3160 14.3270 311° West 445 512 34,000  Level FlightAware
08:42AM 66.3740 14.1620 311° West 444 511 34,000  Level FlightAware
08:42AM 66.4210 14.0260 311° West 449 517 34,000  Level FlightAware
08:43AM 66.4890 13.8300 311° West 449 517 34,000  Level FlightAware
08:44AM 66.5350 13.6950 311° West 448 516 34,000  Level FlightAware
08:45AM 66.6020 13.4990 311° West 446 513 34,000  Level FlightAware
08:45AM 66.6560 13.3390 310° West 447 514 34,000  Level FlightAware
08:46AM 66.7150 13.1600 310° West 447 514 34,000  Level FlightAware
08:47AM 66.7510 13.0530 310° West 447 514 34,000  Level FlightAware
08:47AM 66.8050 12.8880 310° West 441 507 34,000  Level FlightAware
08:48AM 66.8560 12.7330 310° West 440 506 34,000  Level FlightAware
08:49AM 66.9040 12.5870 310° West 439 505 34,000  Level FlightAware
08:49AM 66.9600 12.4110 309° West 437 503 34,000  Level FlightAware
08:50AM 67.0470 12.1390 309° West 440 506 34,000  Level FlightAware
08:51AM 67.1040 11.9590 309° West 438 504 34,000 120 Level FlightAware
08:52AM 67.1530 11.8050 309° West 441 507 34,200 420 Climbing FlightAware
08:52AM 67.2010 11.6510 309° West 442 509 34,600 420 Climbing FlightAware
08:53AM 67.2440 11.5060 308° West 441 507 34,800 120 Climbing FlightAware
08:54AM 67.2810 11.3770 307° West 441 507 34,800  Level FlightAware
08:54AM 67.3320 11.2010 307° West 441 507 34,800  Level FlightAware
08:55AM 67.3700 11.0720 307° West 441 507 34,800  Level FlightAware
08:56AM 67.4450 10.8120 307° West 441 507 34,800  Level FlightAware
08:57AM 67.4830 10.6820 307° West 441 507 34,800  Level FlightAware
08:57AM 67.5200 10.5520 307° West 441 507 34,800  Level FlightAware
08:58AM 67.5580 10.4210 307° West 441 507 34,800  Level FlightAware
08:59AM 67.6080 10.2470 307° West 441 507 34,800  Level FlightAware
08:59AM 67.6450 10.1160 307° West 441 507 34,800  Level FlightAware
09:00AM 67.6830 9.9850 307° West 441 507 34,800  Level FlightAware
09:01AM 67.7210 9.8490 306° West 441 507 34,800  Level FlightAware
09:01AM 67.7590 9.7180 308° West 441 507 34,800  Level FlightAware
09:02AM 67.7990 9.5790 307° West 441 507 34,800  Level FlightAware
09:03AM 67.8360 9.4460 306° West 441 507 34,800  Level FlightAware
09:06AM 67.8979 8.5465 281° West  Level Estimated
09:07AM 67.9174 8.2456 280° West  Level Estimated
09:08AM 67.9364 7.9442 280° West  Level Estimated
09:09AM 67.9548 7.6424 279° West  Level Estimated
09:10AM 67.9727 7.3401 279° West  Level Estimated
09:11AM 67.9900 7.0373 279° West  Level Estimated
09:12AM 68.0068 6.7340 279° West  Level Estimated
09:13AM 68.0230 6.4303 278° West  Level Estimated
09:14AM 68.0386 6.1263 278° West  Level Estimated
09:15AM 68.0537 5.8218 278° West  Level Estimated
09:16AM 68.0682 5.5169 277° West  Level Estimated
09:17AM 68.0822 5.2116 277° West  Level Estimated
09:18AM 68.0956 4.9060 277° West  Level Estimated
09:19AM 68.1084 4.6000 277° West  Level Estimated
09:20AM 68.1207 4.2937 276° West  Level Estimated
09:21AM 68.1324 3.9871 276° West  Level Estimated
09:22AM 68.1435 3.6802 276° West  Level Estimated
09:23AM 68.1541 3.3730 275° West  Level Estimated
09:24AM 68.1640 3.0655 275° West  Level Estimated
09:25AM 68.1735 2.7577 275° West  Level Estimated
09:26AM 68.1823 2.4497 275° West  Level Estimated
09:27AM 68.1906 2.1415 274° West  Level Estimated
09:28AM 68.1983 1.8331 274° West  Level Estimated
09:29AM 68.2054 1.5244 274° West  Level Estimated
09:30AM 68.2120 1.2156 273° West  Level Estimated
09:31AM 68.2180 0.9066 273° West  Level Estimated
09:32AM 68.2234 0.5974 273° West  Level Estimated
09:33AM 68.2282 0.2882 273° West  Level Estimated
09:34AM 68.2325 -0.0213 272° West  Level Estimated
09:35AM 68.2362 -0.3308 272° West  Level Estimated
09:36AM 68.2393 -0.6404 272° West  Level Estimated
09:37AM 68.2418 -0.9501 271° West  Level Estimated
09:38AM 68.2438 -1.2598 271° West  Level Estimated
09:39AM 68.2451 -1.5696 271° West  Level Estimated
09:40AM 68.2459 -1.8794 271° West  Level Estimated
09:41AM 68.2462 -2.1893 270° West  Level Estimated
09:42AM 68.2458 -2.4991 270° West  Level Estimated
09:43AM 68.2449 -2.8089 270° West  Level Estimated
09:44AM 68.2434 -3.1187 269° West  Level Estimated
09:45AM 68.2413 -3.4285 269° West  Level Estimated
09:46AM 68.2386 -3.7381 269° West  Level Estimated
09:47AM 68.2354 -4.0477 269° West  Level Estimated
09:48AM 68.2316 -4.3572 268° West  Level Estimated
09:49AM 68.2272 -4.6666 268° West  Level Estimated
09:50AM 68.2223 -4.9759 268° West  Level Estimated
09:51AM 68.2167 -5.2850 267° West  Level Estimated
09:52AM 68.2106 -5.5940 267° West  Level Estimated
09:53AM 68.2039 -5.9028 267° West  Level Estimated
09:54AM 68.1967 -6.2113 267° West  Level Estimated
09:55AM 68.1889 -6.5198 266° West  Level Estimated
09:56AM 68.1805 -6.8279 266° West  Level Estimated
09:57AM 68.1715 -7.1359 266° West  Level Estimated
09:58AM 68.1619 -7.4436 265° West  Level Estimated
09:59AM 68.1518 -7.7510 265° West  Level Estimated
10:00AM 68.1412 -8.0582 265° West  Level Estimated
10:01AM 68.1299 -8.3650 265° West  Level Estimated
10:02AM 68.1181 -8.6716 264° West  Level Estimated
10:03AM 68.1057 -8.9778 264° West  Level Estimated
10:04AM 68.0928 -9.2837 264° West  Level Estimated
10:05AM 68.0792 -9.5893 263° West  Level Estimated
10:06AM 68.0651 -9.8945 263° West  Level Estimated
10:07AM 68.0505 -10.1993 263° West  Level Estimated
10:08AM 68.0353 -10.5037 263° West  Level Estimated
10:09AM 68.0195 -10.8077 262° West  Level Estimated
10:10AM 68.0032 -11.1112 262° West  Level Estimated
10:11AM 67.9864 -11.4144 262° West  Level Estimated
10:12AM 67.9689 -11.7171 261° West  Level Estimated
10:13AM 67.9509 -12.0193 261° West  Level Estimated
10:14AM 67.9324 -12.3211 261° West  Level Estimated
10:15AM 67.9133 -12.6223 261° West  Level Estimated
10:16AM 67.8936 -12.9231 260° West  Level Estimated
10:17AM 67.8734 -13.2234 260° West  Level Estimated
10:18AM 67.8527 -13.5231 260° West  Level Estimated
10:19AM 67.8314 -13.8223 259° West  Level Estimated
10:20AM 67.8095 -14.1209 259° West  Level Estimated
10:21AM 67.7872 -14.4190 259° West  Level Estimated
10:22AM 67.7642 -14.7164 259° West  Level Estimated
10:23AM 67.7408 -15.0133 258° West  Level Estimated
10:24AM 67.7168 -15.3097 258° West  Level Estimated
10:25AM 67.6922 -15.6053 258° West  Level Estimated
10:26AM 67.6672 -15.9004 258° West  Level Estimated
10:27AM 67.6416 -16.1948 257° West  Level Estimated
10:28AM 67.6154 -16.4886 257° West  Level Estimated
10:29AM 67.5888 -16.7818 257° West  Level Estimated
10:30AM 67.5616 -17.0742 256° West  Level Estimated
10:31AM 67.5338 -17.3660 256° West  Level Estimated
10:32AM 67.5056 -17.6571 256° West  Level Estimated
10:33AM 67.4768 -17.9475 256° West  Level Estimated
10:34AM 67.4475 -18.2372 255° West  Level Estimated
10:35AM 67.4177 -18.5262 255° West  Level Estimated
10:36AM 67.3874 -18.8144 255° West  Level Estimated
10:37AM 67.3566 -19.1019 255° West  Level Estimated
10:38AM 67.3253 -19.3887 254° West  Level Estimated
10:39AM 67.2934 -19.6747 254° West  Level Estimated
10:40AM 67.2610 -19.9599 254° West  Level Estimated
10:41AM 67.2282 -20.2444 254° West  Level Estimated
10:42AM 67.1948 -20.5280 253° West  Level Estimated
10:43AM 67.1609 -20.8109 253° West  Level Estimated
10:44AM 67.1266 -21.0930 253° West  Level Estimated
10:45AM 67.0917 -21.3743 252° West  Level Estimated
10:46AM 67.0564 -21.6548 252° West  Level Estimated
10:47AM 67.0205 -21.9344 252° West  Level Estimated
10:48AM 66.9842 -22.2132 252° West  Level Estimated
10:49AM 66.9474 -22.4912 251° West  Level Estimated
10:50AM 66.9101 -22.7684 251° West  Level Estimated
10:51AM 66.8723 -23.0446 251° West  Level Estimated
10:52AM 66.8340 -23.3201 251° West  Level Estimated
10:53AM 66.7953 -23.5947 250° West  Level Estimated
10:54AM 66.7560 -23.8683 250° West  Level Estimated
10:55AM 66.7163 -24.1412 250° West  Level Estimated
10:56AM 66.6762 -24.4131 250° West  Level Estimated
10:57AM 66.6356 -24.6842 249° West  Level Estimated
10:58AM 66.5945 -24.9543 249° West  Level Estimated
10:59AM 66.5529 -25.2236 249° West  Level Estimated
11:00AM 66.5109 -25.4919 249° West  Level Estimated
11:01AM 66.4684 -25.7594 248° West  Level Estimated
11:02AM 66.4255 -26.0259 248° West  Level Estimated
11:03AM 66.3821 -26.2915 248° West  Level Estimated
11:04AM 66.3382 -26.5562 248° West  Level Estimated
11:05AM 66.2940 -26.8200 247° West  Level Estimated
11:06AM 66.2492 -27.0828 247° West  Level Estimated
11:07AM 66.2041 -27.3447 247° West  Level Estimated
11:08AM 66.1584 -27.6056 247° West  Level Estimated
11:09AM 66.1124 -27.8656 246° West  Level Estimated
11:10AM 66.0659 -28.1247 246° West  Level Estimated
11:11AM 66.0190 -28.3828 246° West  Level Estimated
11:12AM 65.9716 -28.6400 246° West  Level Estimated
11:13AM 65.9239 -28.8962 246° West  Level Estimated
11:14AM 65.8757 -29.1514 245° Southwest  Level Estimated
11:15AM 65.8270 -29.4057 245° Southwest  Level Estimated
11:16AM 65.7780 -29.6591 245° Southwest  Level Estimated
11:17AM 65.7285 -29.9114 245° Southwest  Level Estimated
11:18AM 65.6787 -30.1628 244° Southwest  Level Estimated
11:19AM 65.6284 -30.4132 244° Southwest  Level Estimated
11:20AM 65.5777 -30.6627 244° Southwest  Level Estimated
11:21AM 65.5266 -30.9111 244° Southwest  Level Estimated
11:22AM 65.4751 -31.1586 243° Southwest  Level Estimated
11:23AM 65.4231 -31.4052 243° Southwest  Level Estimated
11:24AM 65.3708 -31.6507 243° Southwest  Level Estimated
11:25AM 65.3181 -31.8953 243° Southwest  Level Estimated
11:26AM 65.2650 -32.1389 243° Southwest  Level Estimated
11:27AM 65.2115 -32.3815 242° Southwest  Level Estimated
11:28AM 65.1576 -32.6231 242° Southwest  Level Estimated
11:29AM 65.1034 -32.8637 242° Southwest  Level Estimated
11:30AM 65.0487 -33.1033 242° Southwest  Level Estimated
11:31AM 64.9937 -33.3420 241° Southwest  Level Estimated
11:32AM 64.9382 -33.5797 241° Southwest  Level Estimated
11:33AM 64.8824 -33.8164 241° Southwest  Level Estimated
11:34AM 64.8263 -34.0521 241° Southwest  Level Estimated
11:35AM 64.7697 -34.2868 241° Southwest  Level Estimated
11:36AM 64.7128 -34.5205 240° Southwest  Level Estimated
11:37AM 64.6555 -34.7533 240° Southwest  Level Estimated
11:38AM 64.5979 -34.9851 240° Southwest  Level Estimated
11:39AM 64.5399 -35.2159 240° Southwest  Level Estimated
11:40AM 64.4816 -35.4457 240° Southwest  Level Estimated
11:41AM 64.4228 -35.6745 239° Southwest  Level Estimated
11:42AM 64.3638 -35.9024 239° Southwest  Level Estimated
11:43AM 64.3043 -36.1292 239° Southwest  Level Estimated
11:44AM 64.2446 -36.3551 239° Southwest  Level Estimated
11:44AM 67.4480 -44.4750 239° Southwest 464 534 38,000  Level FlightAware
11:44AM 67.3880 -44.6310 225° Southwest 465 535 38,000  Level FlightAware
11:45AM 64.1844 -36.5800 239° Southwest  Level Estimated
11:45AM 67.3140 -44.8190 224° Southwest 464 534 38,000  Level FlightAware
11:46AM 67.2420 -45.0020 225° Southwest 463 533 38,000  Level FlightAware
11:47AM 67.1800 -45.1600 225° Southwest 461 531 38,000  Level FlightAware
11:47AM 67.1320 -45.2790 224° Southwest 461 531 38,000  Level FlightAware
11:48AM 67.0650 -45.4460 224° Southwest 458 527 38,000  Level FlightAware
11:49AM 66.9970 -45.6130 224° Southwest 458 527 38,000  Level FlightAware
11:49AM 66.9430 -45.7450 224° Southwest 456 525 38,000  Level FlightAware
11:50AM 66.8760 -45.9080 224° Southwest 456 525 38,000  Level FlightAware
11:51AM 66.8220 -46.0390 224° Southwest 455 524 38,000  Level FlightAware
11:51AM 66.7440 -46.2240 223° Southwest 456 525 38,000  Level FlightAware
11:52AM 66.6920 -46.3470 223° Southwest 457 526 38,000  Level FlightAware
11:53AM 66.6290 -46.4960 223° Southwest 457 526 38,000  Level FlightAware
11:53AM 66.5510 -46.6800 223° Southwest 457 526 38,000  Level FlightAware
11:54AM 66.4880 -46.8250 223° Southwest 457 526 38,000  Level FlightAware
11:55AM 66.4530 -46.9060 223° Southwest 457 526 38,000  Level FlightAware
11:56AM 66.3550 -47.1280 222° Southwest 457 526 38,000  Level FlightAware
11:57AM 66.2930 -47.2660 222° Southwest 457 526 38,000  Level FlightAware
11:57AM 66.2600 -47.3400 222° Southwest 457 526 38,000  Level FlightAware
11:58AM 66.1940 -47.4870 222° Southwest 457 526 38,000  Level FlightAware
11:59AM 66.1300 -47.6290 222° Southwest 457 526 38,000  Level FlightAware
11:59AM 66.0970 -47.7040 223° Southwest 457 526 38,000  Level FlightAware
12:00PM 66.0470 -47.8130 222° Southwest 457 526 38,000  Level FlightAware
12:00PM 65.9860 -47.9490 222° Southwest 457 526 38,000  Level FlightAware
12:01PM 65.9340 -48.0640 222° Southwest 457 526 38,000  Level FlightAware
12:02PM 65.8550 -48.2380 222° Southwest 457 526 38,000  Level FlightAware
12:03PM 65.7890 -48.3820 222° Southwest 457 526 38,000  Level FlightAware
12:03PM 65.7400 -48.4900 222° Southwest 457 526 38,000  Level FlightAware
12:04PM 65.6600 -48.6650 222° Southwest 457 526 38,000  Level FlightAware
12:08PM 65.4040 -49.2488 224° Southwest  Level Estimated
12:09PM 65.3200 -49.4367 223° Southwest  Level Estimated
12:10PM 65.2358 -49.6234 223° Southwest  Level Estimated
12:11PM 65.1514 -49.8089 223° Southwest  Level Estimated
12:12PM 65.0667 -49.9932 223° Southwest  Level Estimated
12:13PM 64.9818 -50.1764 222° Southwest  Level Estimated
12:14PM 64.8967 -50.3584 222° Southwest  Level Estimated
12:14PM 64.7140 -51.1710 222° Southwest 453 521 38,000  Level FlightAware
12:15PM 64.8114 -50.5392 222° Southwest  Level Estimated
12:15PM 64.6750 -51.3260 240° Southwest 453 521 38,000  Level FlightAware
12:16PM 64.6350 -51.4870 240° Southwest 454 522 38,000  Level FlightAware
12:16PM 64.6020 -51.6130 239° Southwest 455 524 38,000  Level FlightAware
12:17PM 64.5580 -51.7840 239° Southwest 456 525 38,000  Level FlightAware
12:17PM 64.5150 -51.9500 239° Southwest 457 526 38,000  Level FlightAware
12:18PM 64.4760 -52.1020 239° Southwest 458 527 38,000  Level FlightAware
12:19PM 64.4300 -52.2770 239° Southwest 459 528 38,000  Level FlightAware
12:19PM 64.3820 -52.4590 239° Southwest 458 527 38,000  Level FlightAware
12:20PM 64.3460 -52.5920 238° Southwest 456 525 38,000  Level FlightAware
12:21PM 64.3060 -52.7410 238° Southwest 455 524 38,000  Level FlightAware
12:21PM 64.2580 -52.9200 238° Southwest 457 526 38,000  Level FlightAware
12:22PM 64.2260 -53.0360 238° Southwest 458 527 38,000  Level FlightAware
12:23PM 64.1800 -53.2080 239° Southwest 458 527 38,000  Level FlightAware
12:23PM 64.1270 -53.3980 237° Southwest 461 531 38,000  Level FlightAware
12:24PM 64.0860 -53.5430 237° Southwest 461 531 38,000  Level FlightAware
12:24PM 64.0460 -53.6840 237° Southwest 461 531 38,000  Level FlightAware
12:25PM 64.0110 -53.8090 237° Southwest 461 531 38,000  Level FlightAware
12:26PM 63.9610 -53.9820 237° Southwest 461 531 38,000  Level FlightAware
12:27PM 63.9140 -54.1480 237° Southwest 461 531 38,000  Level FlightAware
12:27PM 63.8800 -54.2660 237° Southwest 461 531 38,000  Level FlightAware
12:28PM 63.8300 -54.4420 237° Southwest 461 531 38,000  Level FlightAware
12:29PM 63.7820 -54.6100 237° Southwest 461 531 38,000  Level FlightAware
12:30PM 63.7460 -54.7340 237° Southwest 461 531 38,000  Level FlightAware
12:30PM 63.7110 -54.8580 238° Southwest 461 531 38,000  Level FlightAware
12:31PM 63.6750 -54.9810 237° Southwest 461 531 38,000  Level FlightAware
12:31PM 63.6510 -55.0640 237° Southwest 461 531 38,000  Level FlightAware
12:32PM 63.6040 -55.2280 237° Southwest 461 531 38,000  Level FlightAware
12:33PM 63.5670 -55.3540 237° Southwest 461 531 38,000  Level FlightAware
12:33PM 63.5450 -55.4330 238° Southwest 461 531 38,000  Level FlightAware
12:34PM 63.5080 -55.5590 237° Southwest 461 531 38,000  Level FlightAware
12:34PM 63.4840 -55.6410 237° Southwest 461 531 38,000  Level FlightAware
12:38PM 63.2193 -56.4289 236° Southwest  Level FlightAware Approximate
12:39PM 63.1480 -56.6529 235° Southwest  Level FlightAware Approximate
12:40PM 63.0764 -56.8758 235° Southwest  Level FlightAware Approximate
12:41PM 63.0045 -57.0976 235° Southwest  Level FlightAware Approximate
12:42PM 62.9322 -57.3183 234° Southwest  Level FlightAware Approximate
12:43PM 62.8596 -57.5379 234° Southwest  Level FlightAware Approximate
12:44PM 62.7868 -57.7568 234° Southwest  Level FlightAware Approximate
12:45PM 62.7138 -57.9746 234° Southwest  Level FlightAware Approximate
12:46PM 62.6404 -58.1914 234° Southwest  Level FlightAware Approximate
12:47PM 62.5666 -58.4071 233° Southwest  Level FlightAware Approximate
12:48PM 62.4926 -58.6217 233° Southwest  Level FlightAware Approximate
12:49PM 62.4182 -58.8353 233° Southwest  Level FlightAware Approximate
12:50PM 62.3435 -59.0478 233° Southwest  Level FlightAware Approximate
12:51PM 62.2684 -59.2592 233° Southwest  Level FlightAware Approximate
12:52PM 62.1931 -59.4696 233° Southwest  Level FlightAware Approximate
12:53PM 62.1174 -59.6790 232° Southwest  Level FlightAware Approximate
12:54PM 62.0414 -59.8872 232° Southwest  Level FlightAware Approximate
12:55PM 61.9575 -60.0790 221° Southwest  Level FlightAware Approximate
12:56PM 61.8641 -60.2512 221° Southwest  Level FlightAware Approximate
12:57PM 61.7706 -60.4224 221° Southwest  Level FlightAware Approximate
12:58PM 61.6768 -60.5926 221° Southwest  Level FlightAware Approximate
12:58PM 61.4333 -61.0000 221° Southwest 470 541 38,000  Level Montreal Center
12:59PM 61.5829 -60.7617 221° Southwest  Level FlightAware Approximate
12:59PM 61.3333 -61.1500 216° Southwest 470 541 38,000  Level Montreal Center
01:00PM 61.4887 -60.9298 220° Southwest  Level FlightAware Approximate
01:00PM 61.2000 -61.4500 227° Southwest 470 541 38,000  Level Gander Center
01:01PM 61.3943 -61.0969 220° Southwest  Level FlightAware Approximate
01:02PM 61.3000 -61.2635 221° Southwest  Level FlightAware Approximate
01:02PM 61.0333 -61.7667 223° Southwest 470 541 38,000  Level Gander Center
01:03PM 61.2064 -61.4315 221° Southwest  Level FlightAware Approximate
01:03PM 60.9333 -61.9333 219° Southwest 470 541 38,000  Level Gander Center
01:04PM 61.1126 -61.5986 221° Southwest  Level FlightAware Approximate
01:04PM 60.8333 -62.1000 219° Southwest 480 552 38,000  Level Gander Center
01:05PM 60.7333 -62.3000 224° Southwest 480 552 38,000 -240 Level Gander Center
01:06PM 60.6333 -62.5000 224° Southwest 480 552 37,600 -480 Descending Gander Center
01:07PM 60.5667 -62.7333 240° Southwest 480 552 37,100 -540 Descending Gander Center
01:08PM 60.5167 -62.9667 247° West 480 552 36,600 -540 Descending Gander Center
01:09PM 60.4667 -63.2333 249° West 480 552 36,100 -300 Descending Gander Center
01:10PM 60.4167 -63.4667 247° West 480 552 36,000 -60 Descending Gander Center
01:11PM 60.3833 -63.7333 256° West 480 552 36,000  Level Gander Center
01:12PM 60.3167 -64.0000 243° Southwest 480 552 36,000  Level Gander Center
01:13PM 60.2667 -64.2333 247° West 480 552 36,000  Level Gander Center
01:14PM 60.2333 -64.5000 256° West 480 552 36,000  Level Gander Center
01:15PM 60.1667 -64.7667 243° Southwest 490 564 36,000  Level Gander Center
01:16PM 60.1333 -64.9833 253° West 480 552 36,000  Level Gander Center
01:17PM 60.0667 -65.2167 240° Southwest 480 552 36,000  Level Gander Center
01:18PM 59.9500 -65.4000 218° Southwest 470 541 36,000  Level Gander Center
01:19PM 59.8667 -65.5833 228° Southwest 470 541 36,000  Level Gander Center
01:20PM 59.7667 -65.7500 220° Southwest 470 541 36,000  Level Gander Center
01:21PM 59.6667 -65.9333 223° Southwest 470 541 36,000  Level Gander Center
01:22PM 59.5667 -66.0833 217° Southwest 480 552 36,000  Level Gander Center
01:23PM 59.4667 -66.2667 223° Southwest 470 541 36,000  Level Gander Center
01:24PM 59.3667 -66.4500 223° Southwest 470 541 36,000  Level Gander Center
01:25PM 59.2667 -66.6000 217° Southwest 470 541 36,000  Level Gander Center
01:26PM 59.1500 -66.7667 216° Southwest 470 541 36,000  Level Gander Center
01:27PM 59.0667 -66.9167 223° Southwest 470 541 36,000  Level Gander Center
01:28PM 58.9667 -67.1000 223° Southwest 470 541 36,000  Level Gander Center
01:29PM 58.8667 -67.2500 218° Southwest 470 541 36,000  Level Gander Center
01:30PM 58.7667 -67.4167 221° Southwest 470 541 36,000  Level Gander Center
01:31PM 58.6500 -67.5667 214° Southwest 470 541 36,000  Level Gander Center
01:32PM 58.5667 -67.7333 226° Southwest 470 541 36,000  Level Gander Center
01:33PM 58.4500 -67.8833 214° Southwest 470 541 36,000  Level Gander Center
01:34PM 58.3667 -68.0500 226° Southwest 480 552 36,000  Level Gander Center
01:35PM 58.2500 -68.2000 214° Southwest 480 552 36,000  Level Gander Center
01:36PM 58.1500 -68.3667 221° Southwest 480 552 36,000  Level Gander Center
01:37PM 57.9833 -68.5333 208° Southwest 470 541 36,000  Level Montreal Center
01:38PM 57.8833 -68.7167 224° Southwest 470 541 36,000  Level Montreal Center
01:40PM 57.6667 -68.9667 212° Southwest 470 541 36,000  Level Montreal Center
01:41PM 57.5667 -69.1167 219° Southwest 470 541 36,000  Level Montreal Center
01:42PM 57.4500 -69.2667 215° Southwest 470 541 36,000  Level Montreal Center
01:43PM 57.3500 -69.4000 216° Southwest 470 541 36,000  Level Montreal Center
01:44PM 57.2500 -69.5500 219° Southwest 470 541 36,000  Level Montreal Center
01:45PM 57.1333 -69.7000 215° Southwest 470 541 36,000  Level Montreal Center
01:46PM 57.0333 -69.8333 216° Southwest 470 541 36,000  Level Montreal Center
01:47PM 56.9333 -69.9667 216° Southwest 470 541 36,000  Level Montreal Center
01:48PM 56.8167 -70.1167 215° Southwest 470 541 36,000  Level Montreal Center
01:49PM 56.7167 -70.2167 209° Southwest 470 541 36,000  Level Montreal Center
01:50PM 56.6000 -70.4000 221° Southwest 470 541 36,000  Level Montreal Center
01:51PM 56.4833 -70.5333 212° Southwest 470 541 36,000  Level Montreal Center
01:52PM 56.3667 -70.6333 205° Southwest 470 541 36,000  Level Montreal Center
01:53PM 56.2833 -70.7667 222° Southwest 470 541 36,000  Level Montreal Center
01:54PM 56.1667 -70.9167 216° Southwest 470 541 36,000  Level Montreal Center
01:55PM 56.0500 -71.0500 213° Southwest 460 529 36,000  Level Montreal Center
01:56PM 55.9500 -71.1833 217° Southwest 470 541 36,000  Level Montreal Center
01:57PM 55.8500 -71.3167 217° Southwest 470 541 36,000  Level Montreal Center
01:58PM 55.7333 -71.4167 206° Southwest 470 541 36,000  Level Montreal Center
01:59PM 55.6167 -71.5833 219° Southwest 470 541 36,000  Level Montreal Center
02:00PM 55.5000 -71.7167 213° Southwest 470 541 36,000  Level Montreal Center
02:01PM 55.3833 -71.8333 210° Southwest 470 541 36,000  Level Montreal Center
02:02PM 55.3000 -71.9333 214° Southwest 470 541 36,000  Level Montreal Center
02:03PM 55.1833 -72.0667 213° Southwest 470 541 36,000  Level Montreal Center
02:04PM 55.0667 -72.2000 213° Southwest 470 541 36,000  Level Montreal Center
02:05PM 54.9500 -72.3333 213° Southwest 470 541 36,000  Level Montreal Center
02:06PM 54.8500 -72.4500 214° Southwest 470 541 36,000  Level Montreal Center
02:07PM 54.7333 -72.5833 213° Southwest 470 541 36,000  Level Montreal Center
02:08PM 54.6333 -72.7000 214° Southwest 470 541 36,000  Level Montreal Center
02:09PM 54.5333 -72.8333 218° Southwest 470 541 36,000  Level Montreal Center
02:10PM 54.4000 -72.9500 207° Southwest 470 541 36,000  Level Montreal Center
02:11PM 54.3000 -73.0833 218° Southwest 470 541 36,000  Level Montreal Center
02:12PM 54.1833 -73.2000 210° Southwest 460 529 36,000  Level Montreal Center
02:13PM 54.0667 -73.3000 207° Southwest 470 541 36,000  Level Montreal Center
02:14PM 53.9667 -73.4167 214° Southwest 460 529 36,000  Level Montreal Center
02:15PM 53.8500 -73.5333 211° Southwest 460 529 36,000  Level Montreal Center
02:16PM 53.7500 -73.6500 215° Southwest 460 529 36,000  Level Montreal Center
02:17PM 53.6333 -73.7500 207° Southwest 460 529 36,000  Level Montreal Center
02:18PM 53.5167 -73.8667 211° Southwest 460 529 36,000  Level Montreal Center
02:19PM 53.4000 -73.9500 203° Southwest 460 529 36,000  Level Montreal Center
02:20PM 53.2833 -74.0500 207° Southwest 460 529 36,000  Level Montreal Center
02:21PM 53.1667 -74.1333 203° Southwest 460 529 36,000  Level Montreal Center
02:22PM 53.0500 -74.2333 207° Southwest 460 529 36,000  Level Montreal Center
02:23PM 52.9500 -74.3500 215° Southwest 460 529 36,000  Level Montreal Center
02:24PM 52.8333 -74.4333 203° Southwest 460 529 36,000  Level Montreal Center
02:25PM 52.7167 -74.5167 203° Southwest 460 529 36,000  Level Montreal Center
02:26PM 52.5833 -74.6000 201° Southwest 460 529 36,000  Level Montreal Center
02:27PM 52.4833 -74.7167 215° Southwest 460 529 36,000  Level Montreal Center
02:28PM 52.3500 -74.8000 201° Southwest 460 529 36,000  Level Montreal Center
02:29PM 52.2500 -74.9000 211° Southwest 450 518 36,000  Level Montreal Center
02:30PM 52.1333 -74.9833 204° Southwest 460 529 36,000  Level Montreal Center
02:31PM 52.0167 -75.0667 204° Southwest 470 541 36,000  Level Montreal Center
02:32PM 51.9000 -75.1667 208° Southwest 460 529 36,000  Level Montreal Center
02:33PM 51.7833 -75.2500 204° Southwest 460 529 36,000  Level Montreal Center
02:34PM 51.6667 -75.3333 204° Southwest 460 529 36,000  Level Montreal Center
02:35PM 51.5500 -75.4167 204° Southwest 450 518 36,000  Level Montreal Center
02:36PM 51.4333 -75.5333 212° Southwest 450 518 36,000  Level Montreal Center
02:37PM 51.3167 -75.6167 204° Southwest 450 518 36,000  Level Montreal Center
02:38PM 51.2000 -75.7000 204° Southwest 450 518 36,000  Level Montreal Center
02:39PM 51.0833 -75.7833 204° Southwest 450 518 36,000  Level Montreal Center
02:40PM 50.9833 -75.8500 203° Southwest 450 518 36,000  Level Montreal Center
02:41PM 50.8500 -75.9667 209° Southwest 450 518 36,000  Level Montreal Center
02:42PM 50.7500 -76.0500 208° Southwest 460 529 36,000  Level Montreal Center
02:43PM 50.6333 -76.1167 200° South 450 518 36,000  Level Montreal Center
02:44PM 50.5167 -76.2000 204° Southwest 450 518 36,000  Level Montreal Center
02:45PM 50.4000 -76.2833 204° Southwest 450 518 36,000  Level Montreal Center
02:46PM 50.2833 -76.3833 209° Southwest 450 518 36,000  Level Montreal Center
02:47PM 50.1833 -76.4667 208° Southwest 460 529 36,000  Level Montreal Center
02:48PM 50.0333 -76.5500 200° South 460 529 36,000  Level Montreal Center
02:49PM 49.9333 -76.6167 203° Southwest 460 529 36,000  Level Montreal Center
02:50PM 49.8000 -76.7167 206° Southwest 460 529 36,000  Level Montreal Center
02:51PM 49.7000 -76.8000 208° Southwest 460 529 36,000  Level Montreal Center
02:52PM 49.5833 -76.8667 200° South 460 529 36,000  Level Montreal Center
02:53PM 49.4667 -76.9500 205° Southwest 460 529 36,000  Level Montreal Center
02:54PM 49.3500 -77.0167 200° South 480 552 36,000  Level Montreal Center
02:55PM 49.2333 -77.1167 209° Southwest 440 506 36,000  Level Montreal Center
02:56PM 49.1167 -77.2000 205° Southwest 460 529 36,000  Level Montreal Center
02:57PM 49.0000 -77.2667 201° Southwest 460 529 36,000  Level Montreal Center
02:58PM 48.8667 -77.3500 202° Southwest 460 529 36,000  Level Montreal Center
02:59PM 48.7500 -77.4500 209° Southwest 460 529 36,000  Level Montreal Center
03:05PM 48.0750 -77.8810 209° Southwest 470 541 36,000  Level FlightAware
03:06PM 48.0080 -77.9190 201° Southwest 471 542 36,000  Level FlightAware
03:07PM 47.9040 -77.9800 201° Southwest 469 540 36,000  Level FlightAware
03:07PM 47.8360 -78.0180 201° Southwest 469 540 36,000  Level FlightAware
03:08PM 47.7780 -78.0520 202° Southwest 469 540 36,000  Level FlightAware
03:09PM 47.6730 -78.1140 202° Southwest 467 537 36,000  Level FlightAware
03:09PM 47.6030 -78.1540 201° Southwest 467 537 36,000  Level FlightAware
03:10PM 47.5160 -78.2040 201° Southwest 467 537 36,000  Level FlightAware
03:11PM 47.4440 -78.2450 201° Southwest 467 537 36,000  Level FlightAware
03:11PM 47.3790 -78.2830 202° Southwest 467 537 36,000  Level FlightAware
03:12PM 47.2970 -78.3290 201° Southwest 468 539 36,000  Level FlightAware
03:12PM 47.2220 -78.3720 201° Southwest 468 539 36,000  Level FlightAware
03:13PM 47.1370 -78.4200 201° Southwest 468 539 36,000  Level FlightAware
03:14PM 47.0550 -78.4660 201° Southwest 467 537 36,000  Level FlightAware
03:14PM 46.9860 -78.5050 201° Southwest 468 539 36,000  Level FlightAware
03:15PM 46.8950 -78.5560 201° Southwest 469 540 36,000  Level FlightAware
03:16PM 46.8400 -78.5870 201° Southwest 469 540 36,000  Level FlightAware
03:17PM 46.6930 -78.6690 201° Southwest 470 541 36,000  Level FlightAware
03:17PM 46.6280 -78.7050 201° Southwest 472 543 36,000  Level FlightAware
03:18PM 46.5630 -78.7410 201° Southwest 472 543 36,000  Level FlightAware
03:18PM 46.4830 -78.7850 201° Southwest 471 542 36,000  Level FlightAware
03:19PM 46.3940 -78.8330 200° South 473 544 36,000  Level FlightAware
03:20PM 46.2870 -78.8920 201° Southwest 474 545 36,000  Level FlightAware
03:21PM 46.2260 -78.9250 201° Southwest 473 544 36,000  Level FlightAware
03:21PM 46.1370 -78.9740 201° Southwest 472 543 36,000  Level FlightAware
03:22PM 45.9990 -79.0480 200° South 471 542 36,000  Level FlightAware
03:23PM 45.9370 -79.0820 201° Southwest 470 541 36,000  Level FlightAware
03:24PM 45.8600 -79.1230 200° South 468 539 36,000  Level FlightAware
03:24PM 45.7760 -79.1680 200° South 467 537 36,000  Level FlightAware
03:25PM 45.6940 -79.2120 201° Southwest 467 537 36,000  Level FlightAware
03:26PM 45.6110 -79.2560 200° South 467 537 36,000  Level FlightAware
03:26PM 45.5280 -79.3010 201° Southwest 467 537 36,000  Level FlightAware
03:27PM 45.4500 -79.3420 200° South 467 537 36,000  Level FlightAware
03:28PM 45.3790 -79.3800 201° Southwest 468 539 36,000  Level FlightAware
03:28PM 45.3070 -79.4170 200° South 469 540 36,000  Level FlightAware
03:29PM 45.2040 -79.4710 200° South 469 540 36,000  Level FlightAware
03:29PM 45.1400 -79.5050 201° Southwest 470 541 36,000  Level FlightAware
03:30PM 45.0660 -79.5430 200° South 470 541 36,000  Level FlightAware
03:31PM 44.9820 -79.5870 200° South 468 539 36,000  Level FlightAware
03:31PM 44.9210 -79.6190 200° South 468 539 36,000  Level FlightAware
03:32PM 44.8430 -79.6590 200° South 467 537 36,000  Level FlightAware
03:33PM 44.7160 -79.7250 200° South 467 537 36,000  Level FlightAware
03:34PM 44.6440 -79.7620 200° South 467 537 36,000  Level FlightAware
03:34PM 44.5670 -79.8090 204° Southwest 464 534 36,000  Level FlightAware
03:35PM 44.5050 -79.8610 211° Southwest 462 532 36,000  Level FlightAware
03:36PM 44.4220 -79.9370 213° Southwest 460 529 36,000  Level FlightAware
03:36PM 44.3520 -80.0000 213° Southwest 459 528 36,000  Level FlightAware
03:37PM 44.2940 -80.0530 213° Southwest 458 527 36,000  Level FlightAware
03:37PM 44.2380 -80.1030 213° Southwest 458 527 36,000  Level FlightAware
03:38PM 44.1510 -80.1800 212° Southwest 457 526 36,000  Level FlightAware
03:39PM 44.0350 -80.2830 213° Southwest 456 525 36,000  Level FlightAware
03:40PM 43.9850 -80.3280 213° Southwest 457 526 36,000  Level FlightAware
03:41PM 43.8800 -80.4200 212° Southwest 458 527 36,000  Level FlightAware
03:41PM 43.8110 -80.4810 213° Southwest 456 525 36,000  Level FlightAware
03:42PM 43.7530 -80.5320 212° Southwest 455 524 36,000  Level FlightAware
03:42PM 43.6900 -80.5860 212° Southwest 454 522 36,000  Level FlightAware
03:43PM 43.6260 -80.6430 213° Southwest 453 521 36,000  Level FlightAware
03:44PM 43.5140 -80.7400 212° Southwest 456 525 36,000  Level FlightAware
03:45PM 43.4480 -80.7970 212° Southwest 457 526 36,000  Level FlightAware
03:45PM 43.3590 -80.8740 212° Southwest 457 526 36,000  Level FlightAware
03:46PM 43.3050 -80.9210 212° Southwest 456 525 36,000  Level FlightAware
03:47PM 43.1890 -81.0200 212° Southwest 455 524 36,000  Level FlightAware
03:48PM 43.1280 -81.0720 212° Southwest 455 524 36,000  Level FlightAware
03:48PM 43.0540 -81.1350 212° Southwest 454 522 36,000  Level FlightAware
03:49PM 43.0100 -81.1650 207° Southwest 458 527 36,000  Level FlightAware
03:49PM 42.9260 -81.2170 204° Southwest 456 525 36,000  Level FlightAware
03:50PM 42.8510 -81.2640 205° Southwest 457 526 36,000  Level FlightAware
03:51PM 42.7650 -81.3180 205° Southwest 459 528 36,000  Level FlightAware
03:52PM 42.6390 -81.3950 204° Southwest 457 526 36,000  Level FlightAware
03:52PM 42.5840 -81.4290 204° Southwest 457 526 36,000  Level FlightAware
03:53PM 42.5220 -81.4660 204° Southwest 456 525 36,000  Level FlightAware
03:53PM 42.4700 -81.4980 204° Southwest 455 524 36,000  Level FlightAware
03:54PM 42.3430 -81.5750 204° Southwest 455 524 36,000  Level FlightAware
03:55PM 42.2680 -81.6200 204° Southwest 455 524 36,000  Level FlightAware
03:56PM 42.2110 -81.6550 204° Southwest 455 524 36,000  Level FlightAware
03:56PM 42.1270 -81.7050 204° Southwest 455 524 36,000  Level FlightAware
03:57PM 42.0800 -81.7340 205° Southwest 454 522 36,000  Level FlightAware
03:58PM 41.9410 -81.8170 204° Southwest 455 524 36,000  Level FlightAware
03:58PM 41.8890 -81.8480 204° Southwest 456 525 36,000  Level FlightAware
03:59PM 41.8240 -81.8870 204° Southwest 456 525 36,000  Level FlightAware
04:00PM 41.7480 -81.9320 204° Southwest 455 524 36,000  Level FlightAware
04:00PM 41.6860 -81.9690 204° Southwest 453 521 36,000  Level FlightAware
04:01PM 41.6200 -82.0080 204° Southwest 451 519 36,000  Level FlightAware
04:02PM 41.4920 -82.0830 204° Southwest 450 518 36,000  Level FlightAware
04:02PM 41.4250 -82.1230 204° Southwest 450 518 36,000  Level FlightAware
04:03PM 41.3590 -82.1590 202° Southwest 454 522 36,000  Level FlightAware
04:04PM 41.2820 -82.1870 195° South 459 528 36,000  Level FlightAware
04:04PM 41.2150 -82.2120 196° South 458 527 36,000  Level FlightAware
04:05PM 41.1490 -82.2370 196° South 457 526 36,000  Level FlightAware
04:05PM 41.0600 -82.2690 195° South 456 525 36,000  Level FlightAware
04:06PM 40.9870 -82.2950 195° South 456 525 36,000  Level FlightAware
04:07PM 40.9190 -82.3190 195° South 456 525 36,000  Level FlightAware
04:07PM 40.8530 -82.3420 195° South 455 524 36,000  Level FlightAware
04:08PM 40.7950 -82.3630 195° South 454 522 36,000  Level FlightAware
04:08PM 40.7010 -82.3960 195° South 452 520 36,000  Level FlightAware
04:09PM 40.6380 -82.4180 195° South 452 520 36,000  Level FlightAware
04:10PM 40.5540 -82.4480 195° South 454 522 36,000  Level FlightAware
04:11PM 40.4380 -82.4890 195° South 456 525 36,000  Level FlightAware
04:11PM 40.3590 -82.5160 195° South 456 525 36,000  Level FlightAware
04:12PM 40.3020 -82.5360 195° South 456 525 36,000  Level FlightAware
04:13PM 40.1840 -82.5760 195° South 457 526 36,000  Level FlightAware
04:14PM 40.0700 -82.5920 186° South 469 540 36,000  Level FlightAware
04:14PM 39.9950 -82.5980 184° South 468 539 36,000  Level FlightAware
04:15PM 39.9040 -82.6050 183° South 469 540 36,000  Level FlightAware
04:15PM 39.8310 -82.6100 183° South 470 541 36,000  Level FlightAware
04:16PM 39.7500 -82.6160 183° South 470 541 36,000  Level FlightAware
04:17PM 39.6660 -82.6210 183° South 465 535 36,000  Level FlightAware
04:17PM 39.5970 -82.6260 183° South 464 534 36,000  Level FlightAware
04:18PM 39.5240 -82.6310 183° South 465 535 36,000  Level FlightAware
04:18PM 39.4470 -82.6360 183° South 464 534 36,000  Level FlightAware
04:19PM 39.3790 -82.6400 183° South 464 534 36,000  Level FlightAware
04:19PM 39.3060 -82.6450 183° South 464 534 36,000  Level FlightAware
04:20PM 39.2430 -82.6490 183° South 462 532 36,000  Level FlightAware
04:21PM 39.1050 -82.6590 183° South 457 526 36,000  Level FlightAware
04:22PM 39.0350 -82.6630 183° South 457 526 36,000  Level FlightAware
04:22PM 38.9410 -82.6700 183° South 458 527 36,000  Level FlightAware
04:23PM 38.8190 -82.6780 183° South 458 527 36,000  Level FlightAware
04:24PM 38.7420 -82.6830 183° South 460 529 36,000  Level FlightAware
04:25PM 38.6140 -82.6910 183° South 463 533 36,000  Level FlightAware
04:25PM 38.5800 -82.6930 183° South 464 534 36,000  Level FlightAware
04:26PM 38.4820 -82.7000 183° South 463 533 36,000  Level FlightAware
04:27PM 38.4110 -82.7030 182° South 463 533 36,000  Level FlightAware
04:27PM 38.3220 -82.7100 184° South 450 518 36,000  Level FlightAware
04:28PM 38.2550 -82.7130 182° South 450 518 36,000  Level FlightAware
04:28PM 38.1890 -82.7160 182° South 450 518 36,000  Level FlightAware
04:29PM 38.0725 -82.7261 184° South 438 504 36,000  Level FlightAware ADS-B
04:30PM 38.0039 -82.7306 183° South 439 505 36,000  Level FlightAware ADS-B
04:30PM 37.9418 -82.7346 183° South 442 509 36,000  Level FlightAware ADS-B
04:31PM 37.8649 -82.7394 183° South 439 505 36,000  Level FlightAware ADS-B
04:31PM 37.7916 -82.7441 183° South 439 505 36,000  Level FlightAware ADS-B
04:32PM 37.7635 -82.7470 185° South 430 495 36,000  Level FlightAware ADS-B
04:32PM 37.7235 -82.7540 188° South 423 487 36,000  Level FlightAware ADS-B
04:33PM 37.6425 -82.7811 195° South 407 468 36,000  Level FlightAware ADS-B
04:34PM 37.5610 -82.8280 205° Southwest 391 450 36,000  Level FlightAware
04:34PM 37.5080 -82.8640 208° Southwest 392 451 36,000  Level FlightAware
04:35PM 37.4466 -82.9039 207° Southwest 394 453 36,000  Level FlightAware ADS-B
04:36PM 37.3229 -82.9851 208° Southwest 394 453 36,000  Level FlightAware ADS-B
04:37PM 37.2710 -83.0189 207° Southwest 396 456 36,000  Level FlightAware ADS-B
04:37PM 37.2219 -83.0511 208° Southwest 397 457 36,000  Level FlightAware ADS-B
04:38PM 37.1718 -83.0839 208° Southwest 399 459 36,000  Level FlightAware ADS-B
04:38PM 37.1148 -83.1211 207° Southwest 400 460 36,000  Level FlightAware ADS-B
04:39PM 37.0594 -83.1571 207° Southwest 401 461 36,000  Level FlightAware ADS-B
04:39PM 37.0063 -83.1916 207° Southwest 403 464 36,000  Level FlightAware ADS-B
04:40PM 36.9566 -83.2238 207° Southwest 403 464 36,000  Level FlightAware ADS-B
04:40PM 36.9046 -83.2575 207° Southwest 403 464 36,000  Level FlightAware ADS-B
04:41PM 36.8544 -83.2899 207° Southwest 403 464 36,000  Level FlightAware ADS-B
04:41PM 36.8047 -83.3220 207° Southwest 402 463 36,000  Level FlightAware ADS-B
04:42PM 36.7547 -83.3542 207° Southwest 401 461 36,000  Level FlightAware ADS-B
04:42PM 36.6979 -83.3908 207° Southwest 400 460 36,000  Level FlightAware ADS-B
04:43PM 36.6476 -83.4232 207° Southwest 399 459 36,000  Level FlightAware ADS-B
04:43PM 36.5982 -83.4549 207° Southwest 400 460 36,000  Level FlightAware ADS-B
04:44PM 36.5480 -83.4870 207° Southwest 400 460 36,000  Level FlightAware ADS-B
04:44PM 36.4980 -83.5189 207° Southwest 399 459 36,000  Level FlightAware ADS-B
04:45PM 36.4456 -83.5524 207° Southwest 399 459 36,000  Level FlightAware ADS-B
04:45PM 36.3957 -83.5843 207° Southwest 398 458 36,000  Level FlightAware ADS-B
04:46PM 36.3408 -83.6192 207° Southwest 399 459 36,000  Level FlightAware ADS-B
04:47PM 36.2906 -83.6511 207° Southwest 400 460 36,000  Level FlightAware ADS-B
04:47PM 36.2430 -83.6814 207° Southwest 400 460 36,000  Level FlightAware ADS-B
04:48PM 36.1869 -83.7169 207° Southwest 394 453 36,000  Level FlightAware ADS-B
04:48PM 36.1382 -83.7477 207° Southwest 393 452 36,000  Level FlightAware ADS-B
04:49PM 36.0887 -83.7790 207° Southwest 391 450 36,000  Level FlightAware ADS-B
04:49PM 36.0385 -83.8107 207° Southwest 390 449 36,000  Level FlightAware ADS-B
04:50PM 35.9893 -83.8418 207° Southwest 389 448 36,000  Level FlightAware ADS-B
04:50PM 35.9396 -83.8722 206° Southwest 393 452 36,000  Level FlightAware ADS-B
04:50PM 35.9068 -83.8877 201° Southwest 404 465 36,000  Level FlightAware ADS-B
04:51PM 35.8547 -83.9058 196° South 419 482 36,000  Level FlightAware ADS-B
04:51PM 35.7967 -83.9199 191° South 425 489 36,000  Level FlightAware ADS-B
04:52PM 35.7386 -83.9349 192° South 424 488 36,000  Level FlightAware ADS-B
04:52PM 35.6796 -83.9496 191° South 422 486 36,000  Level FlightAware ADS-B
04:53PM 35.6134 -83.9658 191° South 423 487 36,000  Level FlightAware ADS-B
04:54PM 35.5518 -83.9807 191° South 423 487 36,000  Level FlightAware ADS-B
04:54PM 35.4798 -83.9981 191° South 423 487 36,000  Level FlightAware ADS-B
04:55PM 35.4207 -84.0123 191° South 422 486 36,000  Level FlightAware ADS-B
04:55PM 35.3628 -84.0263 191° South 421 484 36,000  Level FlightAware ADS-B
04:56PM 35.2978 -84.0420 191° South 420 483 36,000  Level FlightAware ADS-B
04:56PM 35.2357 -84.0569 191° South 419 482 36,000  Level FlightAware ADS-B
04:57PM 35.1778 -84.0708 191° South 421 484 36,000  Level FlightAware ADS-B
04:57PM 35.1096 -84.0872 191° South 422 486 36,000  Level FlightAware ADS-B
04:58PM 35.0494 -84.1015 191° South 423 487 36,000  Level FlightAware ADS-B
04:58PM 34.9921 -84.1151 191° South 423 487 36,000  Level FlightAware ADS-B
04:59PM 34.9143 -84.1337 191° South 427 491 36,000  Level FlightAware ADS-B
05:00PM 34.8530 -84.1483 191° South 427 491 36,000  Level FlightAware ADS-B
05:00PM 34.7941 -84.1623 191° South 429 494 36,000  Level FlightAware ADS-B
05:01PM 34.7337 -84.1767 191° South 430 495 36,000  Level FlightAware ADS-B
05:01PM 34.6448 -84.1977 191° South 431 496 36,000  Level FlightAware ADS-B
05:02PM 34.5845 -84.2119 191° South 429 494 36,000  Level FlightAware ADS-B
05:02PM 34.5255 -84.2259 191° South 429 494 36,000  Level FlightAware ADS-B
05:03PM 34.4668 -84.2397 191° South 429 494 36,000  Level FlightAware ADS-B
05:03PM 34.4074 -84.2538 191° South 429 494 36,000  Level FlightAware ADS-B
05:04PM 34.3475 -84.2678 191° South 430 495 36,000  Level FlightAware ADS-B
05:05PM 34.2440 -84.2920 191° South 428 493 36,000  Level FlightAware
05:05PM 34.2060 -84.3010 191° South 427 491 36,000 420 Level FlightAware
05:06PM 34.0670 -84.3340 191° South 430 495 36,700 540 Climbing FlightAware
05:07PM 33.9890 -84.3517 191° South 429 494 37,000 240 Climbing FlightAware ADS-B
05:08PM 33.9294 -84.3655 191° South 426 490 37,000  Level FlightAware ADS-B
05:08PM 33.8715 -84.3788 191° South 420 483 37,000  Level FlightAware ADS-B
05:09PM 33.8121 -84.3926 191° South 420 483 37,000  Level FlightAware ADS-B
05:09PM 33.7524 -84.4066 191° South 419 482 37,000  Level FlightAware ADS-B
05:10PM 33.6966 -84.4195 191° South 419 482 37,000  Level FlightAware ADS-B
05:10PM 33.6473 -84.4295 190° South 423 487 37,000  Level FlightAware ADS-B
05:11PM 33.5873 -84.4338 183° South 429 494 37,000  Level FlightAware ADS-B
05:11PM 33.5209 -84.4323 179° South 434 499 37,000  Level FlightAware ADS-B
05:12PM 33.4512 -84.4313 179° South 434 499 37,000  Level FlightAware ADS-B
05:12PM 33.3708 -84.4299 179° South 433 498 37,000  Level FlightAware ADS-B
05:13PM 33.2749 -84.4279 179° South 433 498 37,000  Level FlightAware ADS-B
05:14PM 33.2030 -84.4260 179° South 434 499 37,000  Level FlightAware
05:14PM 33.1240 -84.4250 179° South 433 498 37,000  Level FlightAware
05:15PM 33.0080 -84.4220 179° South 432 497 37,000  Level FlightAware
05:16PM 32.8730 -84.4200 179° South 430 495 37,000  Level FlightAware
05:17PM 32.7610 -84.4170 179° South 428 493 37,000  Level FlightAware
05:18PM 32.6760 -84.4160 179° South 429 494 37,000  Level FlightAware
05:19PM 32.5790 -84.4140 179° South 429 494 37,000  Level FlightAware
05:20PM 32.4980 -84.4120 179° South 429 494 37,000  Level FlightAware
05:20PM 32.4560 -84.4110 179° South 429 494 37,000  Level FlightAware
05:21PM 32.3750 -84.4100 179° South 429 494 37,000  Level FlightAware
05:22PM 32.3140 -84.4080 178° South 429 494 37,000  Level FlightAware
05:22PM 32.2740 -84.4070 179° South 429 494 37,000  Level FlightAware
05:23PM 32.1520 -84.4050 179° South 429 494 37,000  Level FlightAware
05:24PM 32.1100 -84.4040 179° South 429 494 37,000  Level FlightAware
05:24PM 32.0700 -84.4030 179° South 429 494 37,000  Level FlightAware
05:25PM 31.9690 -84.4010 179° South 429 494 37,000  Level FlightAware
05:26PM 31.9260 -84.4000 179° South 429 494 37,000  Level FlightAware
05:26PM 31.8690 -84.3990 179° South 429 494 37,000  Level FlightAware
05:27PM 31.6220 -84.3950 179° South 428 493 37,000  Level FlightAware
05:27PM 31.5760 -84.3940 179° South 429 494 37,000  Level FlightAware
05:28PM 30.1814 -83.8381 161° South 430 495 37,000  Level FlightAware ADS-B (KTLH)
05:29PM 31.4400 -84.3910 339° North 430 495 37,000  Level FlightAware
05:29PM 31.3330 -84.3890 179° South 430 495 37,000  Level FlightAware
05:30PM 31.2070 -84.3870 179° South 432 497 37,000  Level FlightAware
05:31PM 31.1420 -84.3850 178° South 433 498 37,000  Level FlightAware
05:32PM 31.0743 -84.3840 179° South 433 498 37,000  Level FlightAware ADS-B (KTLH)
05:32PM 30.9950 -84.3820 179° South 434 499 37,000  Level FlightAware
05:33PM 30.9350 -84.3812 179° South 434 499 37,000  Level FlightAware ADS-B (KTLH)
05:33PM 30.8706 -84.3800 179° South 435 501 37,000  Level FlightAware ADS-B (KTLH)
05:34PM 30.7722 -84.3781 179° South 435 501 37,000  Level FlightAware ADS-B (KTLH)
05:35PM 30.7154 -84.3770 179° South 436 502 37,000  Level FlightAware ADS-B (KTLH)
05:35PM 30.6383 -84.3701 176° South 446 513 37,000  Level FlightAware ADS-B (KTLH)
05:36PM 30.5506 -84.3481 168° South 455 524 37,000  Level FlightAware ADS-B (KTLH)
05:37PM 30.4737 -84.3156 160° South 466 536 37,000  Level FlightAware ADS-B (KTLH)
05:37PM 30.4219 -84.2855 153° Southeast 474 545 37,000  Level FlightAware ADS-B (KTLH)
05:38PM 30.3411 -84.2324 150° Southeast 473 544 37,000  Level FlightAware ADS-B (KTLH)
05:38PM 30.2838 -84.1952 151° Southeast 472 543 37,000  Level FlightAware ADS-B (KTLH)
05:39PM 30.2262 -84.1577 151° Southeast 471 542 37,000  Level FlightAware ADS-B (KTLH)
05:39PM 30.1452 -84.1049 151° Southeast 469 540 37,000  Level FlightAware ADS-B (KTLH)
05:40PM 30.0903 -84.0692 151° Southeast 469 540 37,000  Level FlightAware ADS-B (KTLH)
05:41PM 30.0194 -84.0231 151° Southeast 469 540 37,000  Level FlightAware ADS-B (KTLH)
05:41PM 29.9390 -83.9709 151° Southeast 471 542 37,000  Level FlightAware ADS-B (KTLH)
05:42PM 29.8809 -83.9334 151° Southeast 472 543 37,000  Level FlightAware ADS-B (KTLH)
05:43PM 29.7370 -83.8410 151° Southeast 472 543 37,000  Level FlightAware
05:44PM 29.6710 -83.7970 150° Southeast 470 541 37,000  Level FlightAware
05:44PM 29.5740 -83.7350 151° Southeast 462 532 37,000  Level FlightAware
05:45PM 29.4810 -83.6760 151° Southeast 461 531 37,000  Level FlightAware
05:46PM 29.4360 -83.6470 151° Southeast 462 532 37,000  Level FlightAware
05:46PM 29.3780 -83.6100 151° Southeast 464 534 37,000  Level FlightAware
05:47PM 29.2770 -83.5450 151° Southeast 463 533 37,000  Level FlightAware
05:48PM 29.2100 -83.5030 151° Southeast 464 534 37,000  Level FlightAware
05:49PM 29.1050 -83.4360 151° Southeast 461 531 37,000  Level FlightAware
05:49PM 29.0460 -83.3980 151° Southeast 462 532 37,000  Level FlightAware
05:50PM 28.9450 -83.3340 151° Southeast 463 533 37,000  Level FlightAware
05:51PM 28.8340 -83.2640 151° Southeast 466 536 37,000  Level FlightAware
05:52PM 28.7230 -83.1940 151° Southeast 467 537 37,000  Level FlightAware
05:53PM 28.6030 -83.1180 151° Southeast 472 543 37,000  Level FlightAware
05:53PM 28.5560 -83.0880 151° Southeast 471 542 37,000  Level FlightAware
05:54PM 28.4720 -83.0360 151° Southeast 468 539 37,000  Level FlightAware
05:55PM 28.3950 -82.9880 151° Southeast 467 537 37,000  Level FlightAware
05:56PM 28.2790 -82.9150 151° Southeast 473 544 37,000  Level FlightAware
05:57PM 28.1940 -82.8620 151° Southeast 470 541 37,000  Level FlightAware
05:58PM 28.0930 -82.7990 151° Southeast 462 532 37,000  Level FlightAware
05:58PM 28.0330 -82.7620 151° Southeast 462 532 37,000  Level FlightAware
05:59PM 27.9630 -82.7180 151° Southeast 462 532 37,000  Level FlightAware
05:59PM 27.8900 -82.6740 152° Southeast 461 531 37,000  Level FlightAware
06:00PM 27.8350 -82.6520 161° South 439 505 37,000  Level FlightAware
06:00PM 27.7770 -82.6490 177° South 430 495 37,000  Level FlightAware
06:01PM 27.6490 -82.6440 178° South 436 502 37,000  Level FlightAware
06:02PM 27.5840 -82.6420 178° South 437 503 37,000  Level FlightAware
06:03PM 27.4550 -82.6370 178° South 437 503 37,000  Level FlightAware
06:04PM 27.3340 -82.6330 178° South 438 504 37,000  Level FlightAware
06:04PM 27.2780 -82.6310 178° South 439 505 37,000  Level FlightAware
06:05PM 27.2070 -82.6280 178° South 439 505 37,000 -420 Level FlightAware
06:06PM 27.1100 -82.6250 178° South 438 504 36,500 -900 Descending FlightAware
06:07PM 27.0020 -82.6210 178° South 443 510 35,600 -1,020 Descending FlightAware
06:07PM 26.9640 -82.6200 179° South 442 509 35,300 -960 Descending FlightAware
06:08PM 26.8230 -82.6150 178° South 439 505 34,200 -1,020 Descending FlightAware
06:09PM 26.7310 -82.6120 178° South 441 507 33,400 -1,020 Descending FlightAware
06:09PM 26.6640 -82.6090 178° South 444 511 32,900 -840 Descending FlightAware
06:11PM 26.5190 -82.6040 178° South 453 521 32,000 -480 Descending FlightAware
06:11PM 26.4300 -82.6010 178° South 453 521 32,000  Level FlightAware
06:12PM 26.3430 -82.5970 178° South 453 521 32,000  Level FlightAware
06:13PM 26.2360 -82.5930 178° South 453 521 32,000  Level FlightAware
06:14PM 26.1290 -82.5890 178° South 453 521 32,000  Level FlightAware
06:15PM 26.0650 -82.5870 178° South 453 521 32,000  Level FlightAware
06:16PM 25.9370 -82.5820 178° South 453 521 32,000  Level FlightAware
06:17PM 25.8510 -82.5780 178° South 453 521 32,000  Level FlightAware
06:18PM 25.7660 -82.5750 178° South 453 521 32,000  Level FlightAware
06:19PM 25.6380 -82.5700 178° South 453 521 32,000  Level FlightAware
06:20PM 25.5450 -82.5670 178° South 453 521 32,000  Level FlightAware
06:20PM 25.4830 -82.5640 177° South 453 521 32,000  Level FlightAware
06:20PM 25.4610 -82.5630 178° South 453 521 32,000 -1,140 Level FlightAware
06:22PM 25.0580 -82.5540 179° South 839 966 29,800 -1,140 Descending FlightAware
06:24PM 24.8280 -82.5460 178° South 415 478 27,800 -780 Descending FlightAware
06:25PM 24.7160 -82.5420 178° South 399 459 27,500 -240 Descending FlightAware
06:26PM 24.6780 -82.5410 179° South 399 459 27,500  Level FlightAware
06:26PM 24.6220 -82.5390 178° South 399 459 27,500  Level FlightAware
06:27PM 24.5650 -82.5370 178° South 399 459 27,500  Level FlightAware
06:28PM 24.4890 -82.5340 178° South 399 459 27,500  Level FlightAware
06:28PM 24.4300 -82.5310 177° South 399 459 27,500 -4,020 Level FlightAware
06:29PM 24.2775 -82.5286 177° South 404 465 22,100 -3,180 Descending Miami Center
06:30PM 24.1772 -82.5286 180° South 388 447 22,000 -60 Descending Miami Center
06:31PM 24.0711 -82.5239 178° South 381 438 22,000  Level Miami Center
06:33PM 23.9031 -82.5028 173° South  Level FlightAware Approximate
06:40PM 23.0444 -82.4000 180° South  Level FlightAware Approximate
06:41PM 22.9891 -82.4091 180° South  Level Estimated
06:42PM 22.9891 -82.4091 180° South  Level Estimated
06:43PM 22.9891 -82.4091 180° South  Level Estimated
06:44PM 22.9891 -82.4091 180° South  Level Estimated
06:45PM 22.9891 -82.4091 180° South  Level Estimated
06:46PM 22.9891 -82.4091 180° South  Level Estimated
06:47PM 22.9891 -82.4091 180° South  Level Estimated
06:48PM 22.9891 -82.4091 180° South  Level Estimated
06:49PM 22.9891 -82.4091 180° South  Level Estimated
06:50PM 22.9891 -82.4091 180° South  Level Estimated
06:51PM 22.9891 -82.4091 180° South  Level Estimated
06:52PM 22.9891 -82.4091 180° South  Level Estimated
06:53PM 22.9891 -82.4091 180° South  Level Estimated
06:54PM 22.9891 -82.4091 180° South  Level Estimated
06:55PM 22.9891 -82.4091 180° South  Level Estimated
06:56PM 22.9891 -82.4091 180° South  Level Estimated
06:57PM 22.9891 -82.4091 180° South  Level Estimated
06:58PM 22.9891 -82.4091 180° South  Level Estimated
06:59PM 22.9891 -82.4091 180° South  Level Estimated
07:00PM 22.9891 -82.4091 180° South  Level Estimated
07:01PM 22.9891 -82.4091 180° South  Level Estimated
07:02PM 22.9891 -82.4091 180° South  Level Estimated
07:03PM 22.9891 -82.4091 180° South  Level Estimated